Time;durP1;ratioP1;P1;durP2;ratioP2;P2;SDS_P1;SDS_P2;PMS_P1;PMS_P2;Temp;Humidity;BMP_temperature;BMP_pressure;BME280_temperature;BME280_humidity;BME280_pressure;Samples;Min_cycle;Max_cycle;Signal;HPM_P1;HPM_P2
2022/01/13 00:01:26;;;;;;;3.53;1.60;;;;;;;17.42;61.35;100086.09;3154376;28;20058;-56
2022/01/13 00:02:57;;;;;;;7.68;1.80;;;;;;;17.37;61.37;100099.13;3149390;28;20036;-51
2022/01/13 00:04:29;;;;;;;3.35;1.88;;;;;;;17.36;61.48;100101.97;3155431;28;20051;-58
2022/01/13 00:06:00;;;;;;;4.13;1.35;;;;;;;17.33;61.51;100100.47;3154654;28;20051;-54
2022/01/13 00:07:33;;;;;;;2.25;1.48;;;;;;;17.30;61.78;100107.97;3156796;28;20055;-54
2022/01/13 00:09:06;;;;;;;3.40;1.40;;;;;;;17.28;61.61;100104.63;3157085;28;20118;-54
2022/01/13 00:10:38;;;;;;;5.13;1.90;;;;;;;17.26;61.84;100096.72;3156777;28;20067;-51
2022/01/13 00:12:12;;;;;;;3.58;1.45;;;;;;;17.27;61.74;100105.59;3154440;28;20089;-51
2022/01/13 00:13:49;;;;;;;3.58;2.03;;;;;;;17.23;61.97;100099.72;3154817;28;20044;-52
2022/01/13 00:15:25;;;;;;;5.45;2.03;;;;;;;17.20;62.03;100098.19;3155636;28;20082;-53
2022/01/13 00:19:07;;;;;;;3.78;1.50;;;;;;;17.13;62.07;100101.66;3121817;28;20060;-53
2022/01/13 00:21:10;;;;;;;3.15;1.50;;;;;;;17.10;62.19;100093.94;3126180;28;20059;-52
2022/01/13 00:23:37;;;;;;;2.42;1.48;;;;;;;17.08;62.63;100088.75;3153614;28;20123;-51
2022/01/13 00:24:41;;;;;;;3.05;1.65;;;;;;;17.03;62.65;100099.09;3155712;28;20040;-51
2022/01/13 00:26:20;;;;;;;4.03;1.48;;;;;;;17.01;62.75;100097.56;3154547;28;20044;-51
2022/01/13 00:27:57;;;;;;;4.05;1.55;;;;;;;16.98;62.65;100109.47;3154117;28;20046;-54
2022/01/13 00:29:31;;;;;;;4.78;2.15;;;;;;;16.97;62.67;100095.22;3153445;28;20047;-50
2022/01/13 00:31:05;;;;;;;7.30;1.45;;;;;;;16.94;62.98;100095.53;3155170;28;20139;-50
2022/01/13 00:32:37;;;;;;;4.97;2.10;;;;;;;16.93;62.90;100104.56;3155404;28;20130;-50
2022/01/13 00:34:09;;;;;;;5.90;2.22;;;;;;;16.89;63.03;100113.09;3154746;28;20635;-51
2022/01/13 00:35:41;;;;;;;2.55;1.75;;;;;;;16.86;62.96;100106.19;3155699;28;20070;-52
2022/01/13 00:37:13;;;;;;;3.47;2.05;;;;;;;16.84;63.03;100110.88;3154770;28;20055;-51
2022/01/13 00:38:45;;;;;;;3.38;1.95;;;;;;;16.83;62.96;100109.19;3149939;28;20055;-51
2022/01/13 00:40:17;;;;;;;4.03;1.40;;;;;;;16.82;63.09;100120.06;3155304;28;20059;-51
2022/01/13 00:41:49;;;;;;;4.70;1.73;;;;;;;16.80;63.17;100114.00;3155124;28;20047;-51
2022/01/13 00:43:21;;;;;;;4.57;1.83;;;;;;;16.80;63.04;100116.69;3157488;28;20453;-54
2022/01/13 00:44:54;;;;;;;2.97;1.55;;;;;;;16.77;63.12;100117.00;3156925;28;20052;-54
2022/01/13 00:46:29;;;;;;;3.33;1.40;;;;;;;16.76;63.08;100118.81;3155323;28;20055;-54
2022/01/13 00:48:01;;;;;;;2.38;1.42;;;;;;;16.70;63.25;100116.75;3156995;28;20048;-54
2022/01/13 00:49:33;;;;;;;5.60;1.80;;;;;;;16.69;63.30;100117.75;3156547;28;20047;-53
2022/01/13 00:51:05;;;;;;;3.03;1.65;;;;;;;16.68;63.27;100124.94;3155900;28;20059;-53
2022/01/13 00:52:36;;;;;;;2.42;1.55;;;;;;;16.67;63.12;100119.75;3156823;28;20101;-52
2022/01/13 00:54:08;;;;;;;3.13;1.50;;;;;;;16.63;63.14;100121.91;3155590;28;20118;-51
2022/01/13 00:55:49;;;;;;;4.22;1.10;;;;;;;16.62;63.35;100125.56;3151924;28;20036;-53
2022/01/13 00:57:21;;;;;;;4.28;1.42;;;;;;;16.62;63.28;100119.38;3155381;28;20048;-53
2022/01/13 00:58:53;;;;;;;1.90;1.65;;;;;;;16.60;63.25;100122.19;3157512;28;20183;-52
2022/01/13 01:00:26;;;;;;;3.78;1.45;;;;;;;16.57;63.34;100122.50;3155249;28;20059;-52
2022/01/13 01:01:58;;;;;;;8.98;1.65;;;;;;;16.56;63.41;100128.03;3155998;28;20052;-51
2022/01/13 01:03:31;;;;;;;1.98;1.40;;;;;;;16.57;63.34;100124.34;3155207;28;20048;-50
2022/01/13 01:05:02;;;;;;;3.35;1.90;;;;;;;16.53;63.57;100121.97;3153297;28;20055;-50
2022/01/13 01:06:35;;;;;;;1.77;1.50;;;;;;;16.51;63.50;100134.66;3154566;28;20048;-50
2022/01/13 01:08:09;;;;;;;2.20;1.00;;;;;;;16.51;63.46;100131.97;3155594;28;20040;-51
2022/01/13 01:09:47;;;;;;;2.00;1.20;;;;;;;16.50;63.49;100134.84;3155516;28;20044;-51
2022/01/13 01:11:20;;;;;;;2.25;1.63;;;;;;;16.50;63.54;100134.84;3155963;28;20036;-53
2022/01/13 01:12:52;;;;;;;7.03;1.80;;;;;;;16.44;63.73;100138.13;3155030;28;20078;-53
2022/01/13 01:14:25;;;;;;;5.32;1.90;;;;;;;16.39;63.53;100141.25;3156543;28;20044;-52
2022/01/13 01:16:01;;;;;;;3.10;1.67;;;;;;;16.38;63.44;100149.44;3155177;28;20056;-53
2022/01/13 01:17:35;;;;;;;2.97;1.52;;;;;;;16.35;63.72;100150.56;3156813;28;20056;-52
2022/01/13 01:19:09;;;;;;;3.30;1.83;;;;;;;16.32;63.86;100156.22;3154613;28;20044;-51
2022/01/13 01:20:49;;;;;;;3.17;1.92;;;;;;;16.35;63.77;100157.75;3156096;28;20071;-53
2022/01/13 01:22:39;;;;;;;2.70;1.58;;;;;;;16.33;63.76;100157.09;3155026;28;20066;-53
2022/01/13 01:24:31;;;;;;;3.45;1.08;;;;;;;16.29;63.97;100161.91;3155126;28;20044;-52
2022/01/13 01:26:07;;;;;;;2.90;1.50;;;;;;;16.28;63.84;100165.56;3155845;28;20055;-52
2022/01/13 01:27:40;;;;;;;2.78;1.45;;;;;;;16.26;63.78;100163.03;3155271;28;20044;-51
2022/01/13 01:29:20;;;;;;;4.38;1.63;;;;;;;16.24;63.89;100158.81;3155513;28;20074;-52
2022/01/13 01:30:54;;;;;;;3.92;2.13;;;;;;;16.22;63.80;100172.38;3155024;28;20543;-57
2022/01/13 01:32:29;;;;;;;2.53;1.70;;;;;;;16.23;63.75;100168.69;3155448;28;20668;-54
2022/01/13 01:34:15;;;;;;;3.38;1.17;;;;;;;16.21;64.01;100168.00;3153871;28;20070;-53
2022/01/13 01:35:48;;;;;;;2.85;1.42;;;;;;;16.22;63.84;100171.53;3154392;28;20052;-53
2022/01/13 01:37:23;;;;;;;3.67;1.80;;;;;;;16.17;63.76;100163.94;3155399;28;20048;-52
2022/01/13 01:38:56;;;;;;;3.15;1.20;;;;;;;16.17;64.03;100158.59;3155070;28;20040;-52
2022/01/13 01:40:28;;;;;;;3.90;1.42;;;;;;;16.14;63.99;100164.25;3154187;28;20051;-52
2022/01/13 01:42:00;;;;;;;3.08;1.42;;;;;;;16.12;63.99;100168.06;3153349;28;20052;-52
2022/01/13 01:43:32;;;;;;;5.00;1.85;;;;;;;16.10;64.04;100165.53;3154132;28;20044;-51
2022/01/13 01:45:05;;;;;;;6.03;1.83;;;;;;;16.10;63.98;100170.88;3152657;28;20169;-51
2022/01/13 01:46:38;;;;;;;2.85;1.20;;;;;;;16.09;63.95;100178.06;3155020;28;20430;-52
2022/01/13 01:48:18;;;;;;;2.03;1.20;;;;;;;16.08;64.08;100175.56;3154445;28;20055;-52
2022/01/13 01:49:55;;;;;;;1.85;1.35;;;;;;;16.06;64.09;100166.84;3154955;28;20059;-55
2022/01/13 01:51:27;;;;;;;3.80;1.48;;;;;;;16.04;64.05;100176.84;3154264;28;20563;-53
2022/01/13 01:52:59;;;;;;;2.47;1.55;;;;;;;16.02;64.07;100165.47;3153330;28;20554;-54
2022/01/13 01:54:29;;;;;;;3.55;1.98;;;;;;;15.99;64.28;100160.38;3156944;28;20044;-51
2022/01/13 01:56:02;;;;;;;2.90;1.75;;;;;;;16.01;64.28;100164.59;3156999;28;20048;-52
2022/01/13 01:57:34;;;;;;;4.57;1.80;;;;;;;15.99;64.10;100171.94;3156553;28;20101;-51
2022/01/13 01:59:07;;;;;;;4.75;1.63;;;;;;;15.97;64.41;100178.44;3156863;28;20102;-54
2022/01/13 02:00:39;;;;;;;1.10;1.00;;;;;;;15.96;64.38;100177.56;3155926;28;20192;-53
2022/01/13 02:02:12;;;;;;;6.15;1.92;;;;;;;15.95;64.31;100175.06;3155225;28;20040;-54
2022/01/13 02:03:45;;;;;;;2.90;2.25;;;;;;;15.95;64.39;100173.22;3155882;28;20070;-53
2022/01/13 02:05:17;;;;;;;2.13;1.73;;;;;;;15.93;64.51;100185.91;3156602;28;20040;-55
2022/01/13 02:06:48;;;;;;;1.17;1.02;;;;;;;15.93;64.48;100188.56;3155667;28;20040;-53
2022/01/13 02:08:20;;;;;;;1.90;1.58;;;;;;;15.92;64.41;100186.06;3157753;28;20098;-51
2022/01/13 02:09:53;;;;;;;3.83;1.63;;;;;;;15.91;64.37;100189.72;3156170;28;20059;-49
2022/01/13 02:11:27;;;;;;;2.17;1.40;;;;;;;15.87;64.41;100181.16;3156896;28;20735;-52
2022/01/13 02:13:07;;;;;;;3.58;1.20;;;;;;;15.88;64.65;100179.31;3151612;28;20089;-52
2022/01/13 02:14:50;;;;;;;2.15;1.20;;;;;;;15.86;64.70;100180.31;3157927;28;20039;-50
2022/01/13 02:16:38;;;;;;;1.88;0.95;;;;;;;15.81;64.66;100177.22;3157479;28;20470;-51
2022/01/13 02:18:10;;;;;;;3.25;1.15;;;;;;;15.79;64.79;100179.22;3157273;28;20066;-50
2022/01/13 02:19:44;;;;;;;3.17;1.40;;;;;;;15.86;64.45;100188.34;3158459;28;20061;-53
2022/01/13 02:21:19;;;;;;;1.70;1.02;;;;;;;15.89;64.50;100178.34;3156037;28;20040;-53
2022/01/13 02:22:50;;;;;;;2.40;1.70;;;;;;;15.87;64.51;100183.81;3156422;28;20040;-52
2022/01/13 02:24:21;;;;;;;2.00;1.00;;;;;;;15.84;64.90;100186.81;3155849;28;20056;-54
2022/01/13 02:25:53;;;;;;;4.10;1.20;;;;;;;15.80;64.93;100186.25;3155349;28;20048;-51
2022/01/13 02:27:25;;;;;;;2.83;1.42;;;;;;;15.79;64.76;100192.59;3154622;28;21069;-52
2022/01/13 02:28:58;;;;;;;8.88;2.10;;;;;;;15.80;64.87;100188.94;3149900;28;20498;-54
2022/01/13 02:30:30;;;;;;;5.90;1.38;;;;;;;15.79;65.10;100187.22;3155554;28;20097;-53
2022/01/13 02:32:05;;;;;;;2.13;1.17;;;;;;;15.77;65.06;100185.72;3154631;28;20063;-51
2022/01/13 02:33:37;;;;;;;1.25;0.85;;;;;;;15.75;65.16;100183.19;3156729;28;20532;-53
2022/01/13 02:35:09;;;;;;;3.00;1.25;;;;;;;15.73;65.11;100170.94;3156439;28;20055;-51
2022/01/13 02:36:45;;;;;;;2.72;1.27;;;;;;;15.74;65.18;100184.19;3155433;28;20494;-53
2022/01/13 02:38:17;;;;;;;2.55;1.45;;;;;;;15.74;65.19;100181.50;3156675;28;20040;-53
2022/01/13 02:39:49;;;;;;;1.92;1.08;;;;;;;15.75;65.20;100172.47;3155789;28;20059;-54
2022/01/13 02:41:23;;;;;;;1.92;1.25;;;;;;;15.76;64.98;100179.50;3156367;28;20501;-55
2022/01/13 02:42:54;;;;;;;2.10;1.08;;;;;;;15.77;65.17;100183.06;3156256;28;20051;-54
2022/01/13 02:44:26;;;;;;;2.58;1.25;;;;;;;15.76;65.25;100179.50;3150857;28;20398;-51
2022/01/13 02:46:17;;;;;;;2.63;1.52;;;;;;;15.74;65.28;100172.63;3156158;28;20044;-53
2022/01/13 02:48:13;;;;;;;5.90;1.25;;;;;;;15.73;65.14;100185.16;3155624;28;20135;-50
2022/01/13 02:49:44;;;;;;;3.00;1.30;;;;;;;15.75;65.03;100179.66;3155828;28;20082;-51
2022/01/13 02:51:16;;;;;;;1.92;1.10;;;;;;;15.76;64.97;100192.03;3156778;28;20040;-53
2022/01/13 02:52:48;;;;;;;4.43;1.20;;;;;;;15.75;64.99;100196.56;3155171;28;20095;-51
2022/01/13 02:54:22;;;;;;;3.47;1.35;;;;;;;15.73;65.05;100195.84;3156541;28;20044;-51
2022/01/13 02:55:56;;;;;;;1.30;1.20;;;;;;;15.74;64.94;100194.88;3156572;28;20052;-52
2022/01/13 02:57:29;;;;;;;4.82;1.25;;;;;;;15.73;65.26;100197.69;3156321;28;20627;-50
2022/01/13 02:59:01;;;;;;;2.00;1.13;;;;;;;15.73;65.12;100198.53;3155948;28;20051;-52
2022/01/13 03:00:33;;;;;;;1.73;0.90;;;;;;;15.71;65.09;100194.31;3154411;28;20047;-52
2022/01/13 03:02:05;;;;;;;1.30;1.00;;;;;;;15.71;65.06;100192.50;3155776;28;20494;-54
2022/01/13 03:03:38;;;;;;;1.65;1.40;;;;;;;15.71;65.13;100199.66;3151462;28;20757;-51
2022/01/13 03:05:13;;;;;;;2.78;1.10;;;;;;;15.70;65.24;100188.13;3154813;28;20048;-50
2022/01/13 03:06:44;;;;;;;2.15;1.45;;;;;;;15.71;65.00;100199.66;3155741;28;20071;-52
2022/01/13 03:08:18;;;;;;;2.50;1.00;;;;;;;15.70;64.84;100203.34;3156468;28;20056;-51
2022/01/13 03:09:50;;;;;;;6.35;1.10;;;;;;;15.68;65.14;100202.59;3155986;28;20048;-55
2022/01/13 03:11:23;;;;;;;2.38;1.25;;;;;;;15.68;65.12;100194.56;3157117;28;20044;-52
2022/01/13 03:12:57;;;;;;;1.58;0.93;;;;;;;15.65;65.23;100191.19;3155396;28;20055;-55
2022/01/13 03:14:29;;;;;;;2.25;1.50;;;;;;;15.65;65.10;100193.88;3155639;28;20059;-51
2022/01/13 03:16:06;;;;;;;4.43;1.75;;;;;;;15.67;65.23;100207.13;3154618;28;20055;-51
2022/01/13 03:17:38;;;;;;;1.85;1.30;;;;;;;15.64;65.29;100202.06;3156988;28;20054;-54
2022/01/13 03:19:10;;;;;;;1.90;1.17;;;;;;;15.66;65.21;100205.44;3155688;28;20426;-53
2022/01/13 03:20:42;;;;;;;1.27;1.17;;;;;;;15.63;65.21;100200.38;3148715;28;20505;-53
2022/01/13 03:22:14;;;;;;;2.85;1.23;;;;;;;15.65;65.16;100201.06;3154694;28;20127;-50
2022/01/13 03:23:48;;;;;;;2.83;1.50;;;;;;;15.65;65.10;100201.06;3154755;28;20050;-54
2022/01/13 03:25:22;;;;;;;2.63;1.00;;;;;;;15.64;65.18;100191.34;3153581;28;20044;-52
2022/01/13 03:26:55;;;;;;;4.72;1.35;;;;;;;15.64;65.08;100194.88;3153853;28;20048;-50
2022/01/13 03:28:31;;;;;;;1.70;1.13;;;;;;;15.62;65.27;100201.34;3155461;28;20044;-53
2022/01/13 03:30:06;;;;;;;1.23;1.13;;;;;;;15.62;65.02;100196.00;3154755;28;20109;-51
2022/01/13 03:31:38;;;;;;;1.65;1.48;;;;;;;15.59;65.15;100193.63;3153941;28;20051;-51
2022/01/13 03:33:11;;;;;;;1.77;1.25;;;;;;;15.58;65.29;100191.94;3154428;28;20044;-51
2022/01/13 03:34:43;;;;;;;2.72;1.02;;;;;;;15.57;65.21;100192.91;3153965;28;20052;-55
2022/01/13 03:36:15;;;;;;;2.97;1.38;;;;;;;15.56;65.29;100197.44;3155965;28;20048;-51
2022/01/13 03:37:47;;;;;;;4.22;2.05;;;;;;;15.54;65.25;100198.56;3155624;28;20040;-49
2022/01/13 03:39:20;;;;;;;1.63;0.80;;;;;;;15.53;65.31;100196.88;3155723;28;20040;-57
2022/01/13 03:40:52;;;;;;;1.80;1.30;;;;;;;15.55;65.17;100216.31;3155112;28;20040;-52
2022/01/13 03:42:24;;;;;;;1.45;1.15;;;;;;;15.54;65.29;100215.44;3155623;28;20048;-53
2022/01/13 03:43:57;;;;;;;1.73;1.13;;;;;;;15.53;65.17;100216.44;3152393;28;20048;-53
2022/01/13 03:45:30;;;;;;;3.25;2.17;;;;;;;15.53;65.04;100196.88;3154630;28;20055;-49
2022/01/13 03:47:04;;;;;;;1.40;0.85;;;;;;;15.52;65.13;100197.88;3154100;28;20051;-54
2022/01/13 03:48:36;;;;;;;1.95;0.80;;;;;;;15.51;65.34;100198.84;3155309;28;20071;-54
2022/01/13 03:50:09;;;;;;;1.35;1.00;;;;;;;15.49;65.21;100198.16;3154888;28;20101;-54
2022/01/13 03:52:15;;;;;;;2.97;1.50;;;;;;;15.50;65.15;100194.50;3155930;28;20040;-52
2022/01/13 03:54:40;;;;;;;3.08;1.10;;;;;;;15.50;65.25;100191.84;3136281;28;20135;-52
2022/01/13 03:57:03;;;;;;;6.32;0.88;;;;;;;15.47;65.11;100190.28;3156081;28;20048;-52
2022/01/13 03:59:12;;;;;;;4.13;1.42;;;;;;;15.44;65.18;100189.75;3155320;28;20044;-51
2022/01/13 04:01:15;;;;;;;2.33;1.30;;;;;;;15.45;64.82;100178.88;3133129;28;20077;-54
2022/01/13 04:02:47;;;;;;;0.82;0.82;;;;;;;15.42;65.21;100188.03;3156142;28;20048;-52
2022/01/13 04:04:18;;;;;;;1.38;0.70;;;;;;;15.40;65.16;100182.00;3156178;28;20040;-51
2022/01/13 04:06:03;;;;;;;1.63;1.05;;;;;;;15.37;65.40;100187.63;3155337;28;20048;-51
2022/01/13 04:07:35;;;;;;;1.40;1.05;;;;;;;15.38;65.37;100189.34;3155331;28;20052;-51
2022/01/13 04:09:09;;;;;;;1.77;1.20;;;;;;;15.38;65.47;100191.16;3155042;28;20653;-50
2022/01/13 04:11:16;;;;;;;3.00;1.13;;;;;;;15.38;65.33;100194.69;3154812;28;20723;-53
2022/01/13 04:12:46;;;;;;;1.90;1.27;;;;;;;15.37;65.37;100192.13;3154637;28;20674;-53
2022/01/13 04:14:28;;;;;;;1.08;0.98;;;;;;;15.34;65.43;100195.94;3154820;28;20044;-50
2022/01/13 04:16:00;;;;;;;1.70;0.85;;;;;;;15.35;65.44;100204.78;3151719;28;20135;-52
2022/01/13 04:17:32;;;;;;;5.95;1.42;;;;;;;15.34;65.38;100203.97;3155981;28;20051;-53
2022/01/13 04:19:06;;;;;;;1.60;1.05;;;;;;;15.33;65.36;100207.63;3154593;28;20056;-51
2022/01/13 04:20:38;;;;;;;2.85;0.98;;;;;;;15.34;65.48;100209.31;3155398;28;20044;-50
2022/01/13 04:22:10;;;;;;;3.13;1.08;;;;;;;15.33;65.33;100201.44;3154897;28;20048;-51
2022/01/13 04:23:42;;;;;;;1.80;1.00;;;;;;;15.30;65.45;100202.59;3155686;28;20051;-50
2022/01/13 04:25:14;;;;;;;3.08;1.33;;;;;;;15.31;65.12;100204.25;3150574;28;20098;-53
2022/01/13 04:26:46;;;;;;;1.52;1.27;;;;;;;15.31;65.33;100206.09;3154678;28;20059;-53
2022/01/13 04:28:25;;;;;;;2.42;1.35;;;;;;;15.30;65.44;100197.22;3155959;28;20052;-50
2022/01/13 04:30:21;;;;;;;1.25;1.10;;;;;;;15.29;65.59;100200.88;3151929;28;20051;-52
2022/01/13 04:31:52;;;;;;;1.42;1.33;;;;;;;15.30;65.47;100194.56;3154036;28;20046;-53
2022/01/13 04:33:24;;;;;;;2.42;1.65;;;;;;;15.29;65.46;100195.53;3154969;28;20044;-52
2022/01/13 04:34:56;;;;;;;3.45;1.48;;;;;;;15.28;65.45;100185.84;3154225;28;20058;-51
2022/01/13 04:36:28;;;;;;;3.35;1.20;;;;;;;15.28;65.47;100199.19;3148749;28;20419;-57
2022/01/13 04:38:00;;;;;;;1.67;1.00;;;;;;;15.28;65.50;100188.50;3152250;28;20044;-53
2022/01/13 04:39:32;;;;;;;2.50;1.00;;;;;;;15.31;65.53;100200.75;3155236;28;20086;-54
2022/01/13 04:41:04;;;;;;;4.32;0.82;;;;;;;15.34;65.27;100189.75;3154046;28;20063;-52
2022/01/13 04:42:37;;;;;;;1.52;1.05;;;;;;;15.34;65.53;100198.63;3155081;28;20040;-51
2022/01/13 04:44:11;;;;;;;1.48;0.82;;;;;;;15.35;65.47;100188.75;3153214;28;20040;-52
2022/01/13 04:45:44;;;;;;;2.33;1.20;;;;;;;15.37;65.38;100198.31;3152722;28;21084;-59
2022/01/13 04:47:16;;;;;;;1.98;1.00;;;;;;;15.37;65.61;100202.84;3155411;28;20067;-55
2022/01/13 04:48:48;;;;;;;2.05;0.85;;;;;;;15.39;65.57;100204.38;3154205;28;20688;-53
2022/01/13 04:50:20;;;;;;;3.60;1.05;;;;;;;15.39;65.61;100204.38;3154071;28;20059;-52
2022/01/13 04:51:52;;;;;;;2.03;0.90;;;;;;;15.39;65.60;100212.41;3154739;28;20108;-52
2022/01/13 04:53:24;;;;;;;1.77;1.00;;;;;;;15.41;65.48;100207.75;3149184;28;20044;-55
2022/01/13 04:54:55;;;;;;;1.77;0.85;;;;;;;15.40;65.58;100200.72;3153738;28;20047;-51
2022/01/13 04:56:29;;;;;;;3.20;0.87;;;;;;;15.41;65.45;100212.28;3154527;28;20036;-53
2022/01/13 04:58:02;;;;;;;3.17;2.00;;;;;;;15.40;65.48;100213.22;3154631;28;20814;-55
2022/01/13 04:59:34;;;;;;;3.05;0.93;;;;;;;15.41;65.53;100213.09;3155150;28;20060;-50
2022/01/13 05:01:07;;;;;;;2.33;1.08;;;;;;;15.40;65.36;100208.72;3154911;28;20600;-52
2022/01/13 05:02:38;;;;;;;0.88;0.65;;;;;;;15.41;65.44;100210.44;3154789;28;20072;-53
2022/01/13 05:04:10;;;;;;;3.97;1.02;;;;;;;15.41;65.43;100209.59;3153655;28;20055;-56
2022/01/13 05:05:42;;;;;;;3.47;1.00;;;;;;;15.41;65.40;100207.75;3155184;28;20132;-53
2022/01/13 05:07:13;;;;;;;4.22;1.75;;;;;;;15.41;65.59;100214.94;3153589;28;20101;-52
2022/01/13 05:08:45;;;;;;;3.73;1.20;;;;;;;15.44;65.68;100229.84;3153841;28;20135;-51
2022/01/13 05:10:17;;;;;;;1.23;0.73;;;;;;;15.47;65.75;100226.88;3154081;28;20270;-52
2022/01/13 05:11:49;;;;;;;0.60;0.60;;;;;;;15.52;65.63;100221.97;3154032;28;20139;-52
2022/01/13 05:13:21;;;;;;;0.90;0.75;;;;;;;15.56;65.52;100218.81;3155229;28;20043;-51
2022/01/13 05:14:56;;;;;;;2.35;0.93;;;;;;;15.63;65.82;100219.09;3154289;28;20044;-50
2022/01/13 05:16:35;;;;;;;1.33;0.60;;;;;;;15.69;65.73;100218.56;3155055;28;20056;-52
2022/01/13 05:18:16;;;;;;;3.72;1.20;;;;;;;15.75;65.63;100219.81;3153441;28;20054;-54
2022/01/13 05:20:09;;;;;;;1.75;1.38;;;;;;;15.81;65.71;100220.03;3154038;28;20044;-51
2022/01/13 05:22:05;;;;;;;1.08;0.57;;;;;;;15.90;65.69;100237.03;3155248;28;20051;-53
2022/01/13 05:23:37;;;;;;;2.08;1.00;;;;;;;15.96;65.43;100232.94;3154102;27;20048;-54
2022/01/13 05:25:08;;;;;;;2.58;1.55;;;;;;;16.00;65.70;100237.84;3153576;28;20051;-51
2022/01/13 05:26:40;;;;;;;2.08;1.00;;;;;;;16.05;65.41;100234.75;3154397;28;20063;-50
2022/01/13 05:28:13;;;;;;;1.80;0.90;;;;;;;16.08;65.30;100237.97;3155353;28;20047;-50
2022/01/13 05:29:44;;;;;;;2.78;1.42;;;;;;;16.13;65.22;100250.91;3155127;28;20433;-51
2022/01/13 05:31:16;;;;;;;3.47;1.23;;;;;;;16.16;65.31;100239.91;3157253;28;20051;-52
2022/01/13 05:32:49;;;;;;;1.00;0.85;;;;;;;16.20;65.31;100251.16;3157623;28;20048;-53
2022/01/13 05:34:21;;;;;;;1.00;0.90;;;;;;;16.23;65.28;100251.69;3157403;28;20101;-53
2022/01/13 05:35:53;;;;;;;1.52;1.08;;;;;;;16.25;65.00;100247.03;3157551;28;20044;-54
2022/01/13 05:37:25;;;;;;;3.38;1.08;;;;;;;16.30;64.97;100249.28;3157500;28;20089;-53
2022/01/13 05:38:56;;;;;;;1.98;1.23;;;;;;;16.31;65.04;100241.06;3159298;28;20126;-53
2022/01/13 05:40:28;;;;;;;1.73;0.73;;;;;;;16.35;64.91;100243.44;3158017;28;20047;-52
2022/01/13 05:42:00;;;;;;;3.88;0.77;;;;;;;16.38;64.82;100244.00;3157537;28;20048;-53
2022/01/13 05:43:32;;;;;;;1.67;0.77;;;;;;;16.42;64.75;100242.72;3157320;28;20048;-50
2022/01/13 05:45:06;;;;;;;1.50;1.10;;;;;;;16.44;64.66;100246.09;3156530;28;20105;-51
2022/01/13 05:46:38;;;;;;;2.47;1.13;;;;;;;16.49;64.59;100245.63;3155035;28;20048;-49
2022/01/13 05:48:11;;;;;;;1.33;0.70;;;;;;;16.53;64.60;100247.00;3154732;28;20044;-52
2022/01/13 05:49:43;;;;;;;1.77;1.35;;;;;;;16.56;64.56;100244.03;3156831;28;20048;-59
2022/01/13 05:51:15;;;;;;;2.10;0.82;;;;;;;16.60;64.35;100245.41;3157138;28;20127;-50
2022/01/13 05:52:47;;;;;;;2.55;0.75;;;;;;;16.64;64.39;100252.16;3155493;28;20060;-52
2022/01/13 05:54:19;;;;;;;2.03;1.10;;;;;;;16.67;64.34;100251.00;3156759;28;20142;-49
2022/01/13 05:55:51;;;;;;;2.47;0.95;;;;;;;16.67;64.08;100246.50;3157280;28;20051;-50
2022/01/13 05:57:23;;;;;;;1.77;0.77;;;;;;;16.71;64.01;100252.38;3156907;28;20044;-51
2022/01/13 05:58:55;;;;;;;1.40;1.30;;;;;;;16.71;64.00;100250.53;3157037;28;20052;-51
2022/01/13 06:00:27;;;;;;;1.42;1.08;;;;;;;16.72;64.05;100254.94;3157256;28;20083;-53
2022/01/13 06:01:59;;;;;;;0.82;0.63;;;;;;;16.77;64.09;100256.31;3153767;28;20055;-53
2022/01/13 06:03:33;;;;;;;3.42;1.50;;;;;;;16.78;64.26;100250.00;3157479;28;20367;-55
2022/01/13 06:05:06;;;;;;;8.20;0.90;;;;;;;16.79;64.15;100257.03;3158264;28;20051;-54
2022/01/13 06:06:37;;;;;;;2.80;1.42;;;;;;;16.81;64.25;100257.72;3157215;28;20048;-54
2022/01/13 06:08:09;;;;;;;2.80;1.10;;;;;;;16.80;64.24;100256.00;3157868;28;20394;-51
2022/01/13 06:09:41;;;;;;;1.35;0.85;;;;;;;16.84;63.69;100258.25;3153300;28;20044;-51
2022/01/13 06:11:13;;;;;;;2.40;0.88;;;;;;;16.89;63.80;100264.00;3152953;28;20620;-52
2022/01/13 06:12:46;;;;;;;6.07;1.33;;;;;;;16.88;63.85;100256.97;3146066;28;20499;-54
2022/01/13 06:14:18;;;;;;;4.40;1.08;;;;;;;16.95;63.80;100259.88;3151290;28;20048;-53
2022/01/13 06:15:50;;;;;;;3.38;1.48;;;;;;;16.99;63.48;100253.19;3153316;28;20047;-48
2022/01/13 06:17:22;;;;;;;5.47;1.88;;;;;;;17.02;63.00;100252.91;3154973;28;20051;-50
2022/01/13 06:18:55;;;;;;;10.07;1.65;;;;;;;17.04;63.06;100256.25;3153596;28;20051;-52
2022/01/13 06:20:27;;;;;;;3.25;1.48;;;;;;;17.04;62.15;100253.56;3154228;28;20044;-52
2022/01/13 06:21:58;;;;;;;21.10;1.50;;;;;;;17.03;61.48;100248.38;3153388;28;20044;-49
2022/01/13 06:23:30;;;;;;;5.20;1.52;;;;;;;17.01;60.70;100253.88;3151632;28;20409;-53
2022/01/13 06:25:02;;;;;;;;;;;;;;;16.99;60.25;100253.19;3154315;28;20055;-53
2022/01/13 06:26:33;;;;;;;2.78;1.08;;;;;;;16.98;59.99;100252.34;3155094;28;19920;-50
2022/01/13 06:28:06;;;;;;;3.88;1.00;;;;;;;17.00;59.35;100248.69;3155432;28;20047;-53
2022/01/13 06:29:38;;;;;;;3.83;1.42;;;;;;;17.02;58.72;100246.69;3154452;28;20048;-56
2022/01/13 06:31:10;;;;;;;2.30;1.10;;;;;;;17.02;58.38;100250.22;3148991;28;20486;-55
2022/01/13 06:32:42;;;;;;;3.03;1.08;;;;;;;17.03;58.16;100259.09;3154739;28;20085;-53
2022/01/13 06:34:16;;;;;;;9.63;2.28;;;;;;;17.05;57.87;100260.63;3154089;28;20109;-52
2022/01/13 06:35:48;;;;;;;2.85;1.08;;;;;;;17.05;57.80;100260.63;3153374;28;20048;-52
2022/01/13 06:37:20;;;;;;;1.73;0.98;;;;;;;17.07;57.61;100269.34;3154316;28;20052;-50
2022/01/13 06:38:52;;;;;;;5.57;1.98;;;;;;;17.08;57.52;100271.06;3154217;28;20068;-48
2022/01/13 06:40:25;;;;;;;2.40;1.00;;;;;;;17.05;57.73;100275.84;3152499;28;20051;-51
2022/01/13 06:41:56;;;;;;;3.08;1.10;;;;;;;16.90;58.16;100276.38;3152335;28;20048;-52
2022/01/13 06:43:28;;;;;;;6.03;1.65;;;;;;;16.81;58.39;100279.16;3154722;28;20052;-49
2022/01/13 06:45:00;;;;;;;2.72;1.10;;;;;;;16.81;58.59;100284.53;3153099;28;20052;-51
2022/01/13 06:46:32;;;;;;;9.23;1.50;;;;;;;16.82;58.93;100291.56;3153914;28;20047;-48
2022/01/13 06:48:05;;;;;;;8.00;1.58;;;;;;;16.81;59.53;100292.56;3154561;28;20051;-52
2022/01/13 06:49:39;;;;;;;8.25;3.08;;;;;;;16.89;60.82;100289.97;3152562;28;20423;-60
2022/01/13 06:51:11;;;;;;;7.35;2.08;;;;;;;16.92;61.05;100297.69;3155125;28;20127;-49
2022/01/13 06:52:43;;;;;;;11.40;3.33;;;;;;;16.85;60.96;100293.91;3154343;28;20056;-50
2022/01/13 06:54:15;;;;;;;8.15;2.05;;;;;;;16.78;60.96;100295.53;3153642;28;20048;-49
2022/01/13 06:55:47;;;;;;;8.40;1.65;;;;;;;16.75;60.84;100297.50;3152837;28;20040;-49
2022/01/13 06:57:19;;;;;;;9.82;1.20;;;;;;;16.72;61.07;100303.16;3154084;28;20044;-51
2022/01/13 06:58:51;;;;;;;4.05;1.30;;;;;;;16.72;60.85;100313.88;3154008;28;20109;-54
2022/01/13 07:00:24;;;;;;;6.22;1.80;;;;;;;16.72;60.85;100323.75;3153323;28;20055;-48
2022/01/13 07:01:58;;;;;;;6.03;2.42;;;;;;;16.71;60.74;100319.38;3153065;28;20047;-50
2022/01/13 07:03:29;;;;;;;7.20;1.58;;;;;;;16.69;60.69;100330.25;3152906;28;20398;-51
2022/01/13 07:05:03;;;;;;;5.88;1.88;;;;;;;16.72;60.67;100318.38;3152551;28;20044;-53
2022/01/13 07:06:35;;;;;;;6.75;1.50;;;;;;;16.65;60.82;100328.00;3155220;28;20052;-53
2022/01/13 07:08:10;;;;;;;3.17;1.67;;;;;;;16.56;60.82;100327.06;3153591;28;20048;-52
2022/01/13 07:09:42;;;;;;;4.75;1.95;;;;;;;16.50;61.04;100322.31;3153767;28;20048;-50
2022/01/13 07:11:13;;;;;;;1.65;1.50;;;;;;;16.44;61.21;100330.94;3153940;28;20078;-55
2022/01/13 07:12:45;;;;;;;4.07;1.58;;;;;;;16.40;61.28;100325.03;3153289;28;20382;-55
2022/01/13 07:14:17;;;;;;;6.80;1.60;;;;;;;16.36;61.49;100323.66;3155001;28;20059;-51
2022/01/13 07:15:49;;;;;;;5.20;1.25;;;;;;;16.35;61.44;100339.84;3152276;28;20083;-51
2022/01/13 07:17:21;;;;;;;1.88;1.30;;;;;;;16.31;61.64;100344.66;3153409;28;20588;-53
2022/01/13 07:18:53;;;;;;;3.38;1.35;;;;;;;16.29;61.60;100328.72;3152091;28;20037;-53
2022/01/13 07:20:27;;;;;;;3.63;1.48;;;;;;;16.29;61.67;100344.78;3153234;28;20890;-50
2022/01/13 07:21:59;;;;;;;5.93;2.88;;;;;;;16.27;61.64;100340.59;3152792;28;20672;-53